Time;durP1;ratioP1;P1;durP2;ratioP2;P2;SDS_P1;SDS_P2;PMS_P1;PMS_P2;Temp;Humidity;BMP_temperature;BMP_pressure;BME280_temperature;BME280_humidity;BME280_pressure;Samples;Min_cycle;Max_cycle;Signal;HPM_P1;HPM_P2
2023/05/14 00:01:46;;;;;;;4.43;4.03;;;14.80;99.90;;;;;;5040280;28;20713;-71
2023/05/14 00:04:12;;;;;;;4.07;3.77;;;14.80;99.90;;;;;;5032120;28;20766;-70
2023/05/14 00:06:38;;;;;;;4.37;3.97;;;14.80;99.90;;;;;;5028623;28;20214;-71
2023/05/14 00:09:05;;;;;;;4.93;4.17;;;14.80;99.90;;;;;;5029063;28;20731;-69
2023/05/14 00:11:30;;;;;;;4.90;4.40;;;14.70;99.90;;;;;;5040010;28;20623;-70
2023/05/14 00:13:56;;;;;;;4.10;3.80;;;14.70;99.90;;;;;;5027174;28;20470;-70
2023/05/14 00:16:22;;;;;;;6.67;4.67;;;14.70;99.90;;;;;;5031066;28;20221;-71
2023/05/14 00:18:47;;;;;;;4.80;4.40;;;14.70;99.90;;;;;;5025964;28;20233;-72
2023/05/14 00:21:13;;;;;;;4.23;3.90;;;14.70;99.90;;;;;;5023210;28;20213;-71
2023/05/14 00:23:39;;;;;;;6.13;4.60;;;14.70;99.90;;;;;;5014947;28;20231;-69
2023/05/14 00:26:04;;;;;;;6.70;4.60;;;14.60;99.90;;;;;;5027430;28;20228;-70
2023/05/14 00:28:30;;;;;;;4.50;4.10;;;14.60;99.90;;;;;;5029121;28;20247;-71
2023/05/14 00:30:56;;;;;;;4.60;4.20;;;14.60;99.90;;;;;;5027894;28;21279;-72
2023/05/14 00:33:21;;;;;;;5.27;4.67;;;14.50;99.90;;;;;;5029846;28;20691;-71
2023/05/14 00:35:47;;;;;;;5.10;4.00;;;14.50;99.90;;;;;;5025693;28;20225;-71
2023/05/14 00:38:18;;;;;;;5.70;4.90;;;14.50;99.90;;;;;;5028245;28;20282;-71
2023/05/14 00:40:48;;;;;;;4.80;4.37;;;14.40;99.90;;;;;;5041623;28;20462;-71
2023/05/14 00:43:15;;;;;;;4.07;3.70;;;14.40;99.90;;;;;;5033753;28;20452;-71
2023/05/14 00:45:41;;;;;;;4.20;3.87;;;14.40;99.90;;;;;;5014473;28;20972;-72
2023/05/14 00:48:06;;;;;;;4.60;4.23;;;14.40;99.90;;;;;;5020286;28;20462;-71
2023/05/14 00:50:33;;;;;;;4.57;4.17;;;14.30;99.90;;;;;;5017600;28;20213;-71
2023/05/14 00:52:59;;;;;;;4.70;4.13;;;14.20;99.90;;;;;;5015244;28;20216;-70
2023/05/14 00:55:26;;;;;;;6.43;4.23;;;14.30;99.90;;;;;;5026594;28;20442;-70
2023/05/14 00:57:53;;;;;;;5.30;4.70;;;14.30;99.90;;;;;;5033923;28;21015;-73
2023/05/14 01:00:19;;;;;;;4.23;3.83;;;14.30;99.90;;;;;;5037558;28;20440;-71
2023/05/14 01:02:45;;;;;;;5.30;4.80;;;14.30;99.90;;;;;;5038434;28;20915;-72
2023/05/14 01:05:11;;;;;;;4.83;4.43;;;14.30;99.90;;;;;;5035682;28;20456;-70
2023/05/14 01:07:56;;;;;;;4.23;3.90;;;14.30;99.90;;;;;;5024657;28;20232;-71
2023/05/14 01:10:41;;;;;;;5.50;4.77;;;14.40;99.90;;;;;;5035592;28;20271;-71
2023/05/14 01:13:19;;;;;;;5.20;4.60;;;14.30;99.90;;;;;;5019841;28;20455;-70
2023/05/14 01:15:46;;;;;;;6.53;4.50;;;14.30;99.90;;;;;;5031325;28;20824;-70
2023/05/14 01:18:16;;;;;;;4.40;4.00;;;14.30;99.90;;;;;;5017391;28;20835;-71
2023/05/14 01:20:43;;;;;;;4.37;3.97;;;14.20;99.90;;;;;;5034814;28;20798;-70
2023/05/14 01:23:09;;;;;;;4.50;4.10;;;14.20;99.90;;;;;;5016739;28;20461;-69
2023/05/14 01:25:36;;;;;;;5.80;4.13;;;14.20;99.90;;;;;;5038143;28;20519;-70
2023/05/14 01:28:19;;;;;;;4.17;3.80;;;14.20;99.90;;;;;;5027004;28;20220;-71
2023/05/14 01:30:55;;;;;;;4.10;3.80;;;14.20;99.90;;;;;;5050523;28;20559;-71
2023/05/14 01:33:24;;;;;;;5.33;4.63;;;14.20;99.90;;;;;;5040267;28;21046;-72
2023/05/14 01:35:53;;;;;;;5.07;4.67;;;14.10;99.90;;;;;;5018190;28;20506;-72
2023/05/14 01:38:20;;;;;;;4.30;3.80;;;14.10;99.90;;;;;;5016335;28;20514;-70
2023/05/14 01:40:47;;;;;;;6.63;4.40;;;14.10;99.90;;;;;;5039142;28;20460;-71
2023/05/14 01:43:15;;;;;;;5.20;4.60;;;14.00;99.90;;;;;;5031556;28;20510;-69
2023/05/14 01:45:41;;;;;;;5.33;4.73;;;14.00;99.90;;;;;;5026662;28;20457;-70
2023/05/14 01:48:07;;;;;;;5.30;4.90;;;13.90;99.90;;;;;;5019426;28;20474;-70
2023/05/14 01:50:33;;;;;;;8.07;4.47;;;13.90;99.90;;;;;;5033340;28;20822;-71
2023/05/14 01:52:58;;;;;;;4.63;4.23;;;13.90;99.90;;;;;;5013916;28;20443;-71
2023/05/14 01:55:24;;;;;;;4.93;4.03;;;13.90;99.90;;;;;;5044157;28;20294;-69
2023/05/14 01:57:51;;;;;;;5.03;4.63;;;13.80;99.90;;;;;;5034175;28;20310;-70
2023/05/14 02:00:17;;;;;;;4.50;4.10;;;13.80;99.90;;;;;;5033993;28;20218;-70
2023/05/14 02:02:43;;;;;;;5.70;4.37;;;13.80;99.90;;;;;;5033663;28;20448;-68
2023/05/14 02:05:12;;;;;;;6.80;4.80;;;13.80;99.90;;;;;;5023049;28;20478;-72
2023/05/14 02:07:37;;;;;;;4.47;3.90;;;13.70;99.90;;;;;;5024984;28;20823;-68
2023/05/14 02:10:04;;;;;;;3.87;3.53;;;13.70;99.90;;;;;;5032679;28;20454;-70
2023/05/14 02:12:30;;;;;;;4.00;3.70;;;13.70;99.90;;;;;;5037757;28;20292;-70
2023/05/14 02:14:55;;;;;;;5.33;4.70;;;13.70;99.90;;;;;;5039209;28;20539;-71
2023/05/14 02:17:21;;;;;;;5.33;4.73;;;13.70;99.90;;;;;;5032797;28;20221;-70
2023/05/14 02:19:47;;;;;;;5.80;5.20;;;13.60;99.90;;;;;;5037485;28;20212;-70
2023/05/14 02:22:12;;;;;;;4.47;4.17;;;13.60;99.90;;;;;;5032826;28;20218;-71
2023/05/14 02:24:38;;;;;;;8.40;4.60;;;13.60;99.90;;;;;;5031911;28;20222;-69
2023/05/14 02:27:05;;;;;;;5.13;4.73;;;13.50;99.90;;;;;;5025915;28;20276;-71
2023/05/14 02:29:30;;;;;;;4.93;4.43;;;13.50;99.90;;;;;;5038201;28;20285;-71
2023/05/14 02:31:56;;;;;;;4.83;4.43;;;13.40;99.90;;;;;;5026475;28;20531;-70
2023/05/14 02:34:22;;;;;;;6.67;4.40;;;13.30;99.90;;;;;;5039178;28;20262;-71
2023/05/14 02:36:49;;;;;;;5.17;3.90;;;13.20;99.90;;;;;;5035861;28;20356;-70
2023/05/14 02:39:15;;;;;;;4.40;4.00;;;13.30;99.90;;;;;;5015801;28;20955;-70
2023/05/14 02:41:40;;;;;;;4.87;4.37;;;13.40;99.90;;;;;;5032366;28;20587;-71
2023/05/14 02:44:06;;;;;;;4.20;3.80;;;13.40;99.90;;;;;;5035757;28;20224;-69
2023/05/14 02:46:32;;;;;;;5.80;4.73;;;13.40;99.90;;;;;;5030912;28;20620;-70
2023/05/14 02:48:57;;;;;;;4.60;4.20;;;13.40;99.90;;;;;;5034950;28;20718;-71
2023/05/14 02:51:23;;;;;;;4.97;4.57;;;13.50;99.90;;;;;;5027728;28;20214;-69
2023/05/14 02:53:49;;;;;;;4.33;3.93;;;13.40;99.90;;;;;;5022307;28;20221;-71
2023/05/14 02:56:15;;;;;;;4.60;4.20;;;13.40;99.90;;;;;;5038841;28;20216;-71
2023/05/14 02:58:41;;;;;;;5.50;4.40;;;13.40;99.90;;;;;;5037056;28;20225;-69
2023/05/14 03:01:07;;;;;;;5.10;4.00;;;13.40;99.90;;;;;;5016930;28;20464;-71
2023/05/14 03:03:33;;;;;;;4.27;3.90;;;13.40;99.90;;;;;;5028334;28;20214;-71
2023/05/14 03:05:59;;;;;;;5.13;4.70;;;13.30;99.90;;;;;;5024696;28;20856;-70
2023/05/14 03:08:25;;;;;;;4.10;3.80;;;13.30;99.90;;;;;;5038803;28;20482;-71
2023/05/14 03:10:50;;;;;;;4.63;4.17;;;13.30;99.90;;;;;;5035975;28;20213;-70
2023/05/14 03:13:18;;;;;;;5.90;4.57;;;13.30;99.90;;;;;;5010163;28;20737;-71
2023/05/14 03:15:45;;;;;;;4.70;4.17;;;13.30;99.90;;;;;;5032482;28;20225;-71
2023/05/14 03:18:14;;;;;;;4.47;4.00;;;13.20;99.90;;;;;;5033822;28;20467;-70
2023/05/14 03:20:40;;;;;;;4.60;4.17;;;13.20;99.90;;;;;;5027272;28;20552;-67
2023/05/14 03:23:06;;;;;;;5.80;4.53;;;13.20;99.90;;;;;;5030053;28;20497;-71
2023/05/14 03:25:33;;;;;;;4.37;3.97;;;13.20;99.90;;;;;;5035645;28;20487;-69
2023/05/14 03:27:58;;;;;;;9.73;4.00;;;13.10;99.90;;;;;;5041250;28;20290;-70
2023/05/14 03:30:24;;;;;;;6.20;3.80;;;13.10;99.90;;;;;;5024032;28;20966;-71
2023/05/14 03:32:50;;;;;;;4.97;4.33;;;13.10;99.90;;;;;;5034063;28;20213;-71
2023/05/14 03:35:16;;;;;;;6.83;3.67;;;13.10;99.90;;;;;;5029301;28;20572;-70
2023/05/14 03:37:42;;;;;;;4.47;4.07;;;13.10;99.90;;;;;;5034189;28;20648;-70
2023/05/14 03:40:08;;;;;;;4.00;3.70;;;13.10;99.90;;;;;;5034704;28;20528;-71
2023/05/14 03:42:35;;;;;;;4.33;3.93;;;13.00;99.90;;;;;;5036744;28;20212;-70
2023/05/14 03:45:02;;;;;;;5.10;4.53;;;13.00;99.90;;;;;;5039389;28;21022;-71
2023/05/14 03:47:27;;;;;;;4.40;4.00;;;12.90;99.90;;;;;;5035969;28;20539;-70
2023/05/14 03:49:53;;;;;;;5.20;4.80;;;12.90;99.90;;;;;;5033793;28;20551;-71
2023/05/14 03:52:19;;;;;;;4.10;3.77;;;12.90;99.90;;;;;;5032214;28;20469;-71
2023/05/14 03:54:45;;;;;;;5.20;4.70;;;12.90;99.90;;;;;;5032864;28;20231;-69
2023/05/14 03:57:10;;;;;;;4.00;3.70;;;12.80;99.90;;;;;;5020087;28;20766;-71
2023/05/14 03:59:36;;;;;;;4.00;3.60;;;12.70;99.90;;;;;;5020953;28;20221;-71
2023/05/14 04:02:02;;;;;;;4.00;3.70;;;12.70;99.90;;;;;;5032513;28;20220;-70
2023/05/14 04:04:27;;;;;;;4.03;3.73;;;12.80;99.90;;;;;;5032290;28;20221;-69
2023/05/14 04:06:53;;;;;;;4.37;3.97;;;12.80;99.90;;;;;;5024534;28;20255;-70
2023/05/14 04:09:19;;;;;;;3.87;3.57;;;12.80;99.90;;;;;;5031387;28;20456;-69
2023/05/14 04:11:45;;;;;;;4.97;4.00;;;12.80;99.90;;;;;;5018716;28;20263;-71
2023/05/14 04:14:10;;;;;;;4.40;3.80;;;12.80;99.90;;;;;;5013122;28;20224;-71
2023/05/14 04:16:36;;;;;;;4.50;4.10;;;12.70;99.90;;;;;;5020837;28;20671;-71
2023/05/14 04:19:05;;;;;;;4.50;4.10;;;12.60;99.90;;;;;;5038607;28;20302;-71
2023/05/14 04:21:31;;;;;;;4.20;3.80;;;12.70;99.90;;;;;;5037354;28;20217;-71
2023/05/14 04:23:56;;;;;;;5.93;5.40;;;12.70;99.90;;;;;;5036363;28;20469;-70
2023/05/14 04:26:22;;;;;;;4.73;4.33;;;12.60;99.90;;;;;;5026014;28;20225;-72
2023/05/14 04:28:48;;;;;;;4.17;3.70;;;12.70;99.90;;;;;;5021948;28;20213;-72
2023/05/14 04:31:14;;;;;;;5.20;4.37;;;12.80;99.90;;;;;;5038874;28;20243;-72
2023/05/14 04:33:40;;;;;;;4.80;4.40;;;12.80;99.90;;;;;;5035338;28;20557;-71
2023/05/14 04:36:07;;;;;;;4.83;4.30;;;12.80;99.90;;;;;;5035445;28;20450;-70
2023/05/14 04:38:32;;;;;;;4.33;3.97;;;12.70;99.90;;;;;;5039692;28;20558;-71
2023/05/14 04:40:58;;;;;;;4.30;3.90;;;12.80;99.90;;;;;;5027223;28;21012;-71
2023/05/14 04:43:24;;;;;;;4.77;4.37;;;12.80;99.90;;;;;;5020835;28;20563;-71
2023/05/14 04:45:51;;;;;;;4.13;3.83;;;12.80;99.90;;;;;;5043614;28;20233;-73
2023/05/14 04:48:17;;;;;;;3.70;3.40;;;12.90;99.90;;;;;;5036034;28;20227;-71
2023/05/14 04:50:43;;;;;;;4.50;3.87;;;12.90;99.90;;;;;;5000684;28;20465;-71
2023/05/14 04:53:09;;;;;;;5.60;4.10;;;12.90;99.90;;;;;;5033507;28;20220;-72
2023/05/14 04:55:35;;;;;;;4.77;4.37;;;12.90;99.90;;;;;;5019795;28;20534;-69
2023/05/14 04:58:01;;;;;;;4.17;3.77;;;13.00;99.90;;;;;;5011177;28;20987;-71
2023/05/14 05:00:27;;;;;;;4.83;4.00;;;13.00;99.90;;;;;;5032836;28;20700;-71
2023/05/14 05:02:53;;;;;;;4.63;4.07;;;13.00;99.90;;;;;;5034059;28;20540;-70
2023/05/14 05:05:19;;;;;;;5.13;4.23;;;13.00;99.90;;;;;;5037045;28;20615;-71
2023/05/14 05:07:45;;;;;;;4.90;4.13;;;13.00;99.90;;;;;;5013367;28;20213;-71
2023/05/14 05:10:12;;;;;;;6.87;3.90;;;13.00;99.90;;;;;;5022918;28;20550;-71
2023/05/14 05:12:38;;;;;;;4.13;3.73;;;13.00;99.90;;;;;;5039789;28;20583;-70
2023/05/14 05:15:04;;;;;;;4.00;3.60;;;13.10;99.90;;;;;;5040328;28;20228;-70
2023/05/14 05:17:30;;;;;;;5.00;4.53;;;13.10;99.90;;;;;;5036520;28;20463;-71
2023/05/14 05:19:56;;;;;;;4.93;4.03;;;13.20;99.90;;;;;;5044579;28;20475;-71
2023/05/14 05:22:23;;;;;;;4.30;3.90;;;13.20;99.90;;;;;;5035350;28;20317;-72
2023/05/14 05:24:48;;;;;;;5.00;3.97;;;13.20;99.90;;;;;;5039939;28;20213;-72
2023/05/14 05:27:14;;;;;;;5.57;4.90;;;13.20;99.90;;;;;;5028662;28;20458;-72
2023/05/14 05:29:40;;;;;;;5.80;5.00;;;13.20;99.90;;;;;;5041611;28;20220;-70
2023/05/14 05:32:06;;;;;;;5.07;4.33;;;13.20;99.90;;;;;;5019702;28;20235;-71
2023/05/14 05:34:32;;;;;;;5.70;4.87;;;13.30;99.90;;;;;;5020400;28;20323;-72
2023/05/14 05:36:57;;;;;;;5.70;4.97;;;13.30;99.90;;;;;;5038866;28;20989;-72
2023/05/14 05:39:23;;;;;;;4.90;4.40;;;13.30;99.90;;;;;;5039154;28;20205;-70
2023/05/14 05:41:49;;;;;;;5.03;4.60;;;13.30;99.90;;;;;;5033627;28;20224;-72
2023/05/14 05:44:15;;;;;;;4.20;3.80;;;13.30;99.90;;;;;;5021864;28;20466;-75
2023/05/14 05:46:41;;;;;;;7.60;5.00;;;13.30;99.90;;;;;;5036947;28;20213;-72
2023/05/14 05:49:06;;;;;;;5.73;5.10;;;13.40;99.90;;;;;;5011879;28;20229;-72
2023/05/14 05:51:32;;;;;;;5.23;4.73;;;13.40;99.90;;;;;;5033628;28;20234;-71
2023/05/14 05:53:58;;;;;;;5.00;4.50;;;13.40;99.90;;;;;;5044542;28;20307;-72
2023/05/14 05:56:23;;;;;;;5.23;4.73;;;13.40;99.90;;;;;;5033815;28;20209;-71
2023/05/14 05:58:49;;;;;;;5.97;5.37;;;13.40;99.90;;;;;;5028405;28;20225;-73
2023/05/14 06:01:14;;;;;;;5.20;4.77;;;13.40;99.90;;;;;;5032651;28;20237;-71
2023/05/14 06:03:40;;;;;;;7.43;5.43;;;13.40;99.90;;;;;;5035123;28;20244;-72
2023/05/14 06:06:06;;;;;;;7.27;5.20;;;13.40;99.90;;;;;;5026831;28;20237;-72
2023/05/14 06:08:32;;;;;;;4.67;4.20;;;13.40;99.90;;;;;;5034064;28;20213;-71
2023/05/14 06:10:58;;;;;;;4.73;4.33;;;13.50;99.90;;;;;;5041206;28;20588;-73
2023/05/14 06:13:23;;;;;;;4.70;4.30;;;13.60;99.90;;;;;;5030771;28;20308;-70
2023/05/14 06:15:49;;;;;;;5.80;5.30;;;13.60;99.90;;;;;;5038770;28;20231;-71
2023/05/14 06:18:15;;;;;;;6.17;4.60;;;13.70;99.90;;;;;;5022882;28;20232;-71
2023/05/14 06:20:40;;;;;;;6.00;5.13;;;13.70;99.90;;;;;;5021701;28;20223;-72
2023/05/14 06:23:06;;;;;;;6.37;4.27;;;13.70;99.90;;;;;;5032372;28;20245;-73
2023/05/14 06:25:33;;;;;;;4.70;4.30;;;13.80;99.90;;;;;;5037663;28;20221;-73
2023/05/14 06:27:58;;;;;;;4.53;4.20;;;13.90;99.90;;;;;;5030278;28;20455;-72
2023/05/14 06:30:24;;;;;;;5.30;4.80;;;14.00;99.90;;;;;;5025896;28;20463;-69
2023/05/14 06:32:50;;;;;;;4.77;4.37;;;14.10;99.90;;;;;;5017692;28;20221;-68
2023/05/14 06:35:17;;;;;;;4.60;4.07;;;14.10;99.90;;;;;;5024800;28;20294;-69
2023/05/14 06:37:43;;;;;;;4.80;4.33;;;14.20;99.90;;;;;;5030228;28;20470;-72
2023/05/14 06:40:10;;;;;;;4.63;3.80;;;14.30;99.90;;;;;;5006427;28;20480;-70
2023/05/14 06:42:35;;;;;;;6.47;4.80;;;14.40;99.90;;;;;;5008901;28;20455;-70
2023/05/14 06:45:04;;;;;;;6.07;4.23;;;14.50;99.90;;;;;;5014966;28;20448;-70
2023/05/14 06:47:30;;;;;;;4.40;3.90;;;14.50;99.90;;;;;;5032261;28;20520;-70
2023/05/14 06:49:57;;;;;;;4.63;4.30;;;14.60;99.90;;;;;;5037772;28;20459;-69
2023/05/14 06:52:24;;;;;;;5.10;4.60;;;14.70;99.90;;;;;;5037802;28;20223;-70
2023/05/14 06:54:49;;;;;;;4.93;4.47;;;14.80;99.90;;;;;;5026420;28;20480;-70
2023/05/14 06:57:15;;;;;;;5.10;4.60;;;14.80;99.90;;;;;;5037228;28;20580;-70
2023/05/14 06:59:41;;;;;;;7.03;4.37;;;14.90;99.90;;;;;;5034887;28;20220;-68
2023/05/14 07:02:06;;;;;;;5.00;4.50;;;15.00;99.90;;;;;;5031565;28;20217;-68
2023/05/14 07:04:32;;;;;;;4.80;4.40;;;15.00;99.90;;;;;;5017166;28;20304;-67
2023/05/14 07:06:58;;;;;;;4.60;4.20;;;15.00;99.90;;;;;;5038429;28;20232;-70
2023/05/14 07:09:23;;;;;;;6.27;4.63;;;15.10;99.90;;;;;;5021131;28;20213;-69
2023/05/14 07:11:49;;;;;;;4.37;3.97;;;15.20;99.90;;;;;;5031684;28;20304;-70
2023/05/14 07:14:15;;;;;;;7.50;4.90;;;15.20;99.90;;;;;;5036863;28;20225;-68
2023/05/14 07:16:41;;;;;;;4.60;4.20;;;15.20;99.90;;;;;;5032000;28;20209;-69
2023/05/14 07:19:07;;;;;;;5.20;4.63;;;15.30;99.90;;;;;;5035578;28;20224;-68
2023/05/14 07:21:34;;;;;;;4.77;4.30;;;15.40;99.90;;;;;;5030316;28;20467;-68
2023/05/14 07:23:59;;;;;;;5.20;4.13;;;15.40;99.90;;;;;;5034028;28;20732;-70
2023/05/14 07:26:25;;;;;;;4.10;3.70;;;15.40;99.90;;;;;;5019503;28;20513;-72
2023/05/14 07:28:51;;;;;;;4.87;4.37;;;15.50;99.90;;;;;;5023843;28;20228;-69
2023/05/14 07:31:16;;;;;;;4.83;4.33;;;15.60;99.90;;;;;;5009023;28;20218;-71
2023/05/14 07:33:42;;;;;;;4.90;4.50;;;15.50;99.90;;;;;;5020953;28;20295;-71
2023/05/14 07:36:07;;;;;;;5.30;4.40;;;15.60;99.90;;;;;;5035727;28;20235;-69
2023/05/14 07:38:33;;;;;;;4.97;4.33;;;15.70;99.90;;;;;;5028778;28;20233;-69
2023/05/14 07:40:59;;;;;;;4.70;3.80;;;15.80;99.90;;;;;;5030529;28;20733;-70
2023/05/14 07:43:25;;;;;;;4.40;4.00;;;15.90;99.90;;;;;;5016537;28;20729;-70
2023/05/14 07:45:51;;;;;;;5.07;3.87;;;15.90;99.90;;;;;;5017343;28;20725;-71
2023/05/14 07:48:16;;;;;;;4.50;4.10;;;16.00;99.90;;;;;;5024841;28;20491;-71
2023/05/14 07:50:42;;;;;;;6.00;4.30;;;16.00;99.90;;;;;;5023553;28;20213;-72
2023/05/14 07:53:08;;;;;;;4.33;3.93;;;15.90;99.90;;;;;;5034197;28;20221;-73
2023/05/14 07:55:34;;;;;;;5.00;3.77;;;16.10;99.90;;;;;;5038393;28;20217;-70
2023/05/14 07:57:59;;;;;;;4.80;4.30;;;16.10;99.90;;;;;;5034709;28;20253;-71
2023/05/14 08:00:25;;;;;;;4.60;4.20;;;16.30;99.90;;;;;;5025412;28;20599;-72
2023/05/14 08:02:51;;;;;;;4.10;3.77;;;16.40;99.90;;;;;;5009650;28;20588;-71
2023/05/14 08:05:17;;;;;;;5.13;4.60;;;16.40;99.90;;;;;;5025959;28;20460;-71
2023/05/14 08:07:43;;;;;;;4.70;4.20;;;16.40;99.90;;;;;;5029284;28;20206;-71
2023/05/14 08:10:09;;;;;;;5.03;4.53;;;16.40;99.90;;;;;;5029349;28;20213;-73
2023/05/14 08:12:35;;;;;;;5.27;4.00;;;16.40;99.90;;;;;;5032537;28;20483;-71
2023/05/14 08:15:01;;;;;;;4.37;3.80;;;16.60;99.90;;;;;;5012766;28;20534;-71
2023/05/14 08:17:27;;;;;;;4.73;4.33;;;16.70;99.90;;;;;;5032079;28;20520;-70
2023/05/14 08:19:53;;;;;;;3.70;3.40;;;16.80;99.90;;;;;;5024971;28;20221;-72
2023/05/14 08:22:19;;;;;;;4.00;3.67;;;16.90;99.90;;;;;;5026030;28;20217;-71
2023/05/14 08:24:45;;;;;;;4.60;3.80;;;16.70;99.90;;;;;;5030848;28;20678;-70
2023/05/14 08:27:10;;;;;;;4.23;3.80;;;16.80;99.90;;;;;;5025014;28;20236;-74
2023/05/14 08:29:36;;;;;;;5.23;3.80;;;16.90;99.90;;;;;;5027410;28;20223;-72
2023/05/14 08:32:02;;;;;;;4.50;4.10;;;16.80;99.90;;;;;;5018101;28;20220;-72
2023/05/14 08:34:28;;;;;;;5.17;4.50;;;16.80;99.90;;;;;;5037697;28;20305;-72
2023/05/14 08:36:54;;;;;;;4.20;3.60;;;16.70;99.90;;;;;;5025027;28;20252;-71
2023/05/14 08:39:19;;;;;;;4.27;3.90;;;16.80;99.90;;;;;;5017435;28;20507;-71
2023/05/14 08:41:45;;;;;;;4.77;3.70;;;16.80;99.90;;;;;;5035401;28;20223;-71
2023/05/14 08:44:17;;;;;;;4.90;4.20;;;16.80;99.90;;;;;;5011760;28;20226;-71
2023/05/14 08:46:44;;;;;;;4.57;4.07;;;17.10;99.90;;;;;;5029855;28;20213;-72
2023/05/14 08:49:15;;;;;;;4.27;3.87;;;17.30;99.90;;;;;;5017238;28;20453;-72
2023/05/14 08:51:48;;;;;;;3.70;3.40;;;17.20;99.90;;;;;;5029632;28;20820;-70
2023/05/14 08:54:18;;;;;;;4.00;3.63;;;17.10;99.90;;;;;;5026605;28;20463;-70
2023/05/14 08:56:45;;;;;;;6.00;4.00;;;17.60;99.90;;;;;;5036825;28;20464;-71
2023/05/14 08:59:11;;;;;;;3.73;3.37;;;17.70;99.90;;;;;;5024661;28;20556;-72
2023/05/14 09:01:40;;;;;;;4.10;3.70;;;17.40;99.90;;;;;;5017797;28;20889;-72
2023/05/14 09:04:08;;;;;;;4.40;3.87;;;17.40;99.90;;;;;;5034167;28;20468;-72
2023/05/14 09:06:38;;;;;;;4.67;3.73;;;17.50;99.90;;;;;;5021066;28;20467;-70
2023/05/14 09:09:04;;;;;;;4.13;3.73;;;17.60;99.90;;;;;;5040895;28;20489;-72
2023/05/14 09:11:30;;;;;;;3.80;3.50;;;17.80;99.90;;;;;;5047611;28;20821;-71
2023/05/14 09:13:56;;;;;;;4.17;3.87;;;17.70;99.90;;;;;;5041045;28;20546;-72
2023/05/14 09:16:24;;;;;;;4.20;3.80;;;17.60;99.90;;;;;;5024001;28;20220;-72
2023/05/14 09:18:50;;;;;;;3.67;3.37;;;17.90;99.90;;;;;;5031136;28;20278;-72
2023/05/14 09:21:17;;;;;;;4.10;3.70;;;18.00;99.90;;;;;;5023206;28;20451;-71
2023/05/14 09:23:44;;;;;;;4.03;3.70;;;18.10;99.90;;;;;;5047259;28;20467;-72
2023/05/14 09:26:10;;;;;;;3.70;3.40;;;18.20;99.90;;;;;;5038206;28;20460;-71
2023/05/14 09:28:42;;;;;;;4.57;3.43;;;18.20;99.90;;;;;;5023572;28;20447;-70
2023/05/14 09:31:09;;;;;;;3.90;3.57;;;18.10;99.90;;;;;;5012758;28;20505;-71
2023/05/14 09:33:35;;;;;;;4.63;4.23;;;18.10;99.90;;;;;;5027368;28;20452;-71
2023/05/14 09:36:01;;;;;;;3.90;3.50;;;18.10;99.90;;;;;;5028580;28;20221;-72
2023/05/14 09:38:28;;;;;;;4.50;4.10;;;18.10;99.90;;;;;;5022058;28;20480;-70
2023/05/14 09:40:55;;;;;;;4.27;3.87;;;18.10;99.90;;;;;;5034338;28;20236;-73
2023/05/14 09:43:20;;;;;;;5.60;3.30;;;17.90;99.90;;;;;;5032101;28;20524;-71
2023/05/14 09:45:46;;;;;;;3.90;3.60;;;17.90;99.90;;;;;;5015771;28;21047;-72
2023/05/14 09:48:12;;;;;;;3.73;3.43;;;18.00;99.90;;;;;;5007076;28;20278;-72
2023/05/14 09:50:42;;;;;;;3.70;3.40;;;18.10;99.90;;;;;;5030241;28;20217;-72
2023/05/14 09:53:08;;;;;;;4.70;3.90;;;18.10;99.90;;;;;;5025845;28;20222;-73
2023/05/14 09:55:38;;;;;;;4.40;4.00;;;18.10;99.90;;;;;;5033458;28;20479;-72
2023/05/14 09:58:04;;;;;;;4.07;3.33;;;18.00;99.90;;;;;;5027477;28;20474;-72
2023/05/14 10:00:34;;;;;;;3.63;3.33;;;18.00;99.90;;;;;;5027024;28;20471;-70
2023/05/14 10:03:05;;;;;;;4.07;3.70;;;18.00;99.90;;;;;;5034395;28;20820;-72
2023/05/14 10:05:34;;;;;;;3.60;3.30;;;17.80;99.90;;;;;;5036293;28;20471;-70
2023/05/14 10:08:08;;;;;;;3.87;3.40;;;18.00;99.90;;;;;;5032774;28;20456;-72
2023/05/14 10:10:36;;;;;;;5.40;3.50;;;17.90;99.90;;;;;;5050899;28;20713;-68
2023/05/14 10:13:12;;;;;;;3.80;3.23;;;17.80;99.90;;;;;;5027744;28;20464;-70
2023/05/14 10:16:00;;;;;;;3.90;3.60;;;17.90;99.90;;;;;;5030012;28;20848;-73
2023/05/14 10:18:29;;;;;;;3.80;3.37;;;17.80;99.90;;;;;;5030318;28;20475;-72
2023/05/14 10:21:05;;;;;;;3.53;3.23;;;18.00;99.90;;;;;;5029512;28;20461;-72
2023/05/14 10:23:32;;;;;;;6.57;3.70;;;18.30;99.90;;;;;;5025050;28;20459;-73
2023/05/14 10:25:59;;;;;;;4.27;3.67;;;18.40;99.90;;;;;;5029489;28;20520;-72
2023/05/14 10:28:25;;;;;;;3.70;3.40;;;18.50;99.90;;;;;;5026033;28;20460;-72
2023/05/14 10:30:51;;;;;;;3.17;2.97;;;18.60;99.90;;;;;;5020160;28;20479;-71
2023/05/14 10:33:17;;;;;;;3.90;3.60;;;18.70;99.90;;;;;;5021558;28;20456;-72
2023/05/14 10:36:01;;;;;;;3.80;2.90;;;18.60;99.90;;;;;;5008623;28;20220;-74
2023/05/14 10:38:29;;;;;;;3.40;3.20;;;18.70;99.90;;;;;;5030788;28;20846;-72
2023/05/14 10:41:12;;;;;;;3.97;3.53;;;18.50;99.90;;;;;;5008922;28;20456;-70
2023/05/14 10:43:39;;;;;;;3.47;3.10;;;18.60;99.90;;;;;;5023593;28;20489;-72
2023/05/14 10:46:06;;;;;;;2.80;2.60;;;18.50;99.90;;;;;;5032780;28;20523;-70
2023/05/14 10:48:33;;;;;;;3.93;3.20;;;18.40;99.90;;;;;;5017127;28;20455;-72
2023/05/14 10:50:59;;;;;;;3.67;3.33;;;18.40;99.90;;;;;;5027891;28;20468;-70
2023/05/14 10:53:31;;;;;;;3.60;3.30;;;18.40;99.90;;;;;;5027830;28;20451;-70
2023/05/14 10:55:57;;;;;;;4.87;3.57;;;18.30;99.90;;;;;;5033175;28;20525;-72
2023/05/14 10:58:23;;;;;;;3.30;3.03;;;18.40;99.90;;;;;;5008384;28;20483;-71
2023/05/14 11:00:54;;;;;;;3.77;3.47;;;18.30;99.90;;;;;;5028340;28;20475;-72
2023/05/14 11:03:20;;;;;;;4.10;3.70;;;18.60;99.90;;;;;;5044969;28;20244;-73
2023/05/14 11:05:46;;;;;;;3.70;3.37;;;18.60;99.90;;;;;;5021831;28;20477;-72
2023/05/14 11:08:13;;;;;;;3.50;3.20;;;18.60;99.90;;;;;;5015293;28;20488;-73
2023/05/14 11:10:39;;;;;;;5.27;3.30;;;18.50;99.90;;;;;;5039901;28;20475;-72
2023/05/14 11:13:05;;;;;;;3.60;3.30;;;18.40;99.90;;;;;;5024840;28;20990;-72
2023/05/14 11:15:31;;;;;;;3.87;3.57;;;18.60;99.90;;;;;;5025263;28;20471;-72
2023/05/14 11:17:56;;;;;;;3.60;3.30;;;18.60;99.90;;;;;;5028899;28;20228;-71
2023/05/14 11:20:22;;;;;;;4.13;3.33;;;18.50;99.90;;;;;;5030295;28;20251;-73
2023/05/14 11:22:50;;;;;;;3.63;3.10;;;18.60;99.90;;;;;;5033605;28;20210;-70
2023/05/14 11:25:17;;;;;;;3.37;3.07;;;18.60;99.90;;;;;;5030519;28;20222;-70
2023/05/14 11:27:44;;;;;;;3.60;3.30;;;18.80;99.90;;;;;;5029435;28;20520;-72
2023/05/14 11:30:14;;;;;;;3.30;3.00;;;18.80;99.90;;;;;;5039220;28;20455;-72
2023/05/14 11:32:40;;;;;;;4.20;3.70;;;18.80;99.90;;;;;;5041669;28;20549;-71
2023/05/14 11:35:06;;;;;;;3.73;3.37;;;18.90;99.90;;;;;;5030068;28;20451;-71
2023/05/14 11:37:32;;;;;;;4.80;3.13;;;18.90;99.90;;;;;;5040699;28;20466;-72
2023/05/14 11:39:59;;;;;;;3.50;3.20;;;19.00;99.90;;;;;;5021099;28;20439;-72
2023/05/14 11:42:25;;;;;;;3.57;3.27;;;19.00;99.90;;;;;;5039370;28;20209;-70
2023/05/14 11:44:52;;;;;;;3.73;3.40;;;18.90;99.90;;;;;;5018336;28;20547;-72
2023/05/14 11:47:20;;;;;;;3.30;3.10;;;19.00;99.90;;;;;;5031187;28;20275;-73
2023/05/14 11:49:46;;;;;;;3.53;3.23;;;19.10;99.90;;;;;;5031987;28;20833;-71
2023/05/14 11:52:13;;;;;;;3.53;3.00;;;19.10;99.90;;;;;;5011863;28;20462;-71
2023/05/14 11:54:40;;;;;;;3.70;3.40;;;19.20;99.90;;;;;;5038868;28;20465;-71
2023/05/14 11:57:15;;;;;;;4.27;3.57;;;19.40;99.90;;;;;;5034223;28;20455;-71
2023/05/14 11:59:41;;;;;;;4.13;3.83;;;19.50;99.90;;;;;;5015705;28;20546;-71
2023/05/14 12:02:11;;;;;;;3.20;3.00;;;19.60;99.90;;;;;;5009424;28;20833;-72
2023/05/14 12:04:38;;;;;;;3.77;3.30;;;19.70;99.90;;;;;;5022179;28;20237;-72
2023/05/14 12:07:15;;;;;;;5.30;3.40;;;19.80;99.90;;;;;;5025270;28;20455;-71
2023/05/14 12:09:48;;;;;;;3.73;3.40;;;19.90;99.90;;;;;;5037565;28;20981;-71
2023/05/14 12:12:16;;;;;;;3.70;3.17;;;19.80;99.90;;;;;;5034830;28;20558;-72
2023/05/14 12:14:44;;;;;;;3.40;3.10;;;19.70;99.90;;;;;;5037030;28;20460;-72
2023/05/14 12:17:21;;;;;;;4.13;3.83;;;20.00;99.90;;;;;;5038536;28;20452;-72
2023/05/14 12:19:49;;;;;;;3.67;2.80;;;20.20;99.90;;;;;;5033077;28;20621;-71
2023/05/14 12:22:21;;;;;;;2.83;2.63;;;20.00;99.90;;;;;;5038585;28;20454;-71
2023/05/14 12:24:53;;;;;;;4.27;3.50;;;20.30;99.90;;;;;;5039284;28;20839;-72
2023/05/14 12:27:25;;;;;;;2.87;2.67;;;20.20;99.90;;;;;;5017112;28;20804;-73
2023/05/14 12:30:02;;;;;;;3.03;2.83;;;20.40;99.90;;;;;;5013577;28;20444;-71
2023/05/14 12:32:34;;;;;;;2.77;2.57;;;20.50;99.90;;;;;;5036486;28;20545;-71
2023/05/14 12:35:00;;;;;;;2.97;2.77;;;20.50;99.90;;;;;;5021760;28;20456;-72
2023/05/14 12:37:26;;;;;;;4.63;3.00;;;20.30;99.90;;;;;;5031294;28;20454;-71
2023/05/14 12:39:52;;;;;;;3.13;2.83;;;20.50;99.90;;;;;;5027826;28;20208;-71
2023/05/14 12:42:18;;;;;;;3.53;3.17;;;20.40;99.90;;;;;;5033544;28;20459;-73
2023/05/14 12:44:43;;;;;;;3.40;3.10;;;20.50;99.90;;;;;;5032591;28;20221;-70
2023/05/14 12:47:09;;;;;;;3.63;3.33;;;20.70;99.90;;;;;;5017786;28;20224;-73